createdAt,value
2022-08-05T00:01:56.512Z,2.60
2022-08-05T00:04:09.336Z,2.67
2022-08-05T00:06:28.969Z,2.97
2022-08-05T00:08:36.188Z,2.70
2022-08-05T00:10:37.720Z,3.58
2022-08-05T00:12:55.888Z,3.00
2022-08-05T00:14:58.151Z,3.00
2022-08-05T00:17:01.670Z,2.97
2022-08-05T00:19:04.251Z,2.67
2022-08-05T00:21:06.751Z,2.60
2022-08-05T00:23:12.740Z,2.72
2022-08-05T00:25:14.492Z,2.85
2022-08-05T00:27:17.670Z,2.65
2022-08-05T00:29:22.788Z,2.85
2022-08-05T00:31:53.216Z,2.83
2022-08-05T00:34:56.059Z,2.83
2022-08-05T00:36:15.935Z,2.88
2022-08-05T00:38:33.877Z,3.05
2022-08-05T00:40:46.606Z,3.30
2022-08-05T00:42:54.766Z,2.80
2022-08-05T00:44:56.065Z,2.80
2022-08-05T00:47:02.157Z,3.13
2022-08-05T00:49:05.510Z,3.15
2022-08-05T00:51:50.683Z,2.88
2022-08-05T00:54:00.253Z,3.25
2022-08-05T00:55:52.008Z,2.83
2022-08-05T00:57:55.498Z,3.10
2022-08-05T01:00:00.171Z,3.00
2022-08-05T01:02:01.455Z,3.30
2022-08-05T01:04:03.594Z,3.55
2022-08-05T01:06:15.512Z,3.40
2022-08-05T01:08:40.188Z,3.00
2022-08-05T01:10:52.551Z,3.10
2022-08-05T01:13:05.327Z,3.08
2022-08-05T01:15:35.500Z,2.92
2022-08-05T01:17:53.677Z,3.38
2022-08-05T01:20:06.158Z,2.95
2022-08-05T01:22:07.486Z,2.92
2022-08-05T01:24:22.095Z,3.00
2022-08-05T01:26:26.691Z,2.88
2022-08-05T01:28:27.982Z,3.22
2022-08-05T01:30:33.555Z,2.95
2022-08-05T01:32:38.204Z,2.60
2022-08-05T01:34:45.796Z,3.03
2022-08-05T01:36:49.354Z,2.90
2022-08-05T01:38:51.056Z,2.90
2022-08-05T01:40:53.263Z,3.40
2022-08-05T01:42:56.800Z,2.92
2022-08-05T01:45:02.358Z,2.95
2022-08-05T01:47:05.128Z,3.15
2022-08-05T01:49:22.746Z,3.08
2022-08-05T01:51:26.717Z,3.03
2022-08-05T01:53:57.791Z,3.10
2022-08-05T01:55:55.939Z,2.97
2022-08-05T01:58:10.630Z,3.10
2022-08-05T02:00:17.239Z,3.20
2022-08-05T02:02:20.233Z,3.05
2022-08-05T02:04:33.730Z,3.10
2022-08-05T02:06:38.823Z,3.53
2022-08-05T02:08:40.978Z,2.90
2022-08-05T02:10:59.183Z,3.10
2022-08-05T02:13:12.997Z,3.20
2022-08-05T02:15:22.835Z,3.70
2022-08-05T02:18:28.228Z,3.80
2022-08-05T02:19:49.593Z,3.28
2022-08-05T02:22:17.418Z,3.33
2022-08-05T02:24:28.348Z,3.20
2022-08-05T02:26:54.541Z,3.45
2022-08-05T02:28:56.147Z,3.70
2022-08-05T02:31:07.486Z,3.53
2022-08-05T02:33:10.043Z,4.30
2022-08-05T02:35:15.483Z,3.47
2022-08-05T02:37:24.077Z,3.67
2022-08-05T02:39:27.596Z,3.70
2022-08-05T02:41:36.218Z,3.60
2022-08-05T02:44:02.327Z,3.55
2022-08-05T02:46:08.595Z,3.95
2022-08-05T02:48:18.613Z,3.85
2022-08-05T02:50:21.884Z,3.40
2022-08-05T02:52:30.262Z,4.15
2022-08-05T02:54:34.765Z,4.43
2022-08-05T02:56:38.190Z,4.45
2022-08-05T02:58:45.078Z,4.15
2022-08-05T03:00:54.655Z,4.25
2022-08-05T03:02:57.146Z,4.60
2022-08-05T03:04:59.730Z,4.05
2022-08-05T03:07:01.075Z,4.40
2022-08-05T03:09:02.538Z,3.75
2022-08-05T03:11:56.215Z,4.18
2022-08-05T03:13:51.547Z,4.15
2022-08-05T03:16:00.580Z,4.28
2022-08-05T03:18:01.851Z,4.30
2022-08-05T03:20:05.994Z,4.57
2022-08-05T03:22:16.483Z,4.15
2022-08-05T03:24:23.637Z,4.30
2022-08-05T03:26:32.325Z,4.22
2022-08-05T03:28:34.026Z,4.63
2022-08-05T03:30:36.675Z,4.00
2022-08-05T03:32:39.535Z,4.05
2022-08-05T03:34:41.997Z,4.30
2022-08-05T03:36:43.298Z,3.55
2022-08-05T03:38:44.775Z,3.92
2022-08-05T03:42:56.087Z,3.80
2022-08-05T03:44:57.458Z,4.50
2022-08-05T03:46:58.736Z,5.07
2022-08-05T03:49:00.058Z,4.50
2022-08-05T03:52:39.291Z,4.57
2022-08-05T03:55:52.425Z,4.47
2022-08-05T03:56:26.892Z,3.70
2022-08-05T03:58:36.575Z,4.57
2022-08-05T04:00:41.954Z,4.30
2022-08-05T04:02:57.943Z,4.30
2022-08-05T04:05:01.271Z,4.22
2022-08-05T04:07:03.321Z,4.38
2022-08-05T04:09:08.478Z,4.20
2022-08-05T04:11:10.075Z,4.45
2022-08-05T04:13:11.676Z,4.20
2022-08-05T04:15:15.568Z,4.20
2022-08-05T04:17:18.185Z,4.50
2022-08-05T04:19:20.846Z,3.90
2022-08-05T04:22:09.431Z,4.07
2022-08-05T04:24:05.806Z,3.90
2022-08-05T04:26:07.881Z,3.97
2022-08-05T04:28:12.836Z,4.10
2022-08-05T04:30:14.928Z,3.80
2022-08-05T04:32:30.553Z,3.58
2022-08-05T04:34:35.218Z,3.80
2022-08-05T04:36:45.518Z,3.90
2022-08-05T04:38:52.438Z,4.00
2022-08-05T04:40:53.815Z,4.53
2022-08-05T04:42:55.145Z,3.85
2022-08-05T04:44:56.467Z,3.83
2022-08-05T04:46:58.939Z,4.03
2022-08-05T04:49:00.371Z,3.80
2022-08-05T04:51:11.380Z,3.55
2022-08-05T04:53:13.954Z,3.88
2022-08-05T04:55:15.526Z,4.15
2022-08-05T04:57:16.975Z,3.80
2022-08-05T04:59:22.243Z,4.00
2022-08-05T05:02:06.761Z,3.53
2022-08-05T05:03:59.301Z,4.00
2022-08-05T05:06:40.069Z,4.70
2022-08-05T05:08:29.984Z,3.70
2022-08-05T05:10:33.207Z,3.30
2022-08-05T05:12:36.860Z,3.67
2022-08-05T05:14:38.287Z,3.47
2022-08-05T05:16:50.994Z,3.78
2022-08-05T05:19:17.627Z,3.35
2022-08-05T05:21:17.267Z,3.40
2022-08-05T05:23:19.511Z,3.42
2022-08-05T05:25:21.496Z,3.72
2022-08-05T05:27:41.616Z,3.40
2022-08-05T05:30:04.284Z,3.50
2022-08-05T05:32:06.819Z,3.42
2022-08-05T05:34:13.903Z,3.22
2022-08-05T05:36:17.050Z,3.15
2022-08-05T05:38:22.376Z,3.10
2022-08-05T05:40:29.896Z,3.58
2022-08-05T05:42:31.481Z,2.85
2022-08-05T05:44:36.403Z,2.83
2022-08-05T05:46:38.992Z,2.90
2022-08-05T05:48:41.954Z,3.05
2022-08-05T05:50:45.395Z,3.00
2022-08-05T05:52:47.232Z,3.00
2022-08-05T05:54:48.979Z,3.20
2022-08-05T05:56:52.434Z,3.33
2022-08-05T05:58:54.271Z,3.80
2022-08-05T06:00:57.096Z,3.50
2022-08-05T06:02:58.391Z,3.08
2022-08-05T06:05:00.239Z,3.20
2022-08-05T06:07:02.738Z,3.33
2022-08-05T06:09:05.026Z,3.38
2022-08-05T06:11:06.526Z,3.72
2022-08-05T06:13:08.055Z,3.10
2022-08-05T06:15:16.485Z,3.40
2022-08-05T06:17:30.893Z,3.55
2022-08-05T06:19:35.324Z,3.70
2022-08-05T06:21:38.728Z,3.47
2022-08-05T06:23:44.405Z,3.60
2022-08-05T06:26:12.728Z,3.20
2022-08-05T06:28:12.551Z,3.30
2022-08-05T06:30:22.804Z,3.03
2022-08-05T06:32:28.957Z,2.90
2022-08-05T06:34:30.807Z,2.92
2022-08-05T06:36:53.522Z,3.05
2022-08-05T06:38:54.515Z,3.20
2022-08-05T06:40:56.544Z,3.20
2022-08-05T06:42:58.274Z,3.10
2022-08-05T06:44:59.566Z,3.05
2022-08-05T06:47:06.673Z,3.45
2022-08-05T06:49:12.134Z,3.10
2022-08-05T06:51:22.805Z,2.97
2022-08-05T06:53:29.764Z,3.05
2022-08-05T06:55:36.492Z,3.17
2022-08-05T06:58:02.922Z,2.55
2022-08-05T06:59:59.258Z,2.38
2022-08-05T07:02:01.910Z,2.20
2022-08-05T07:04:04.095Z,2.28
2022-08-05T07:06:13.942Z,2.70
2022-08-05T07:08:16.710Z,2.63
2022-08-05T07:10:18.239Z,2.47
2022-08-05T07:12:41.302Z,2.50
2022-08-05T07:15:09.256Z,2.85
2022-08-05T07:17:59.792Z,2.83
2022-08-05T07:20:23.080Z,2.60
2022-08-05T07:22:00.038Z,2.50
2022-08-05T07:24:02.761Z,2.60
2022-08-05T07:26:04.459Z,2.75
2022-08-05T07:28:08.170Z,2.30
2022-08-05T07:30:28.230Z,2.15
2022-08-05T07:32:36.133Z,2.90
2022-08-05T07:34:42.016Z,2.35
2022-08-05T07:36:43.643Z,2.60
2022-08-05T07:38:44.934Z,2.42
2022-08-05T07:40:46.535Z,2.40
2022-08-05T07:42:57.486Z,2.35
2022-08-05T07:45:00.377Z,2.60
2022-08-05T07:47:06.206Z,2.10
2022-08-05T07:49:09.510Z,2.38
2022-08-05T07:51:23.527Z,2.33
2022-08-05T07:53:36.639Z,2.15
2022-08-05T07:55:44.549Z,2.50
2022-08-05T07:58:03.046Z,2.30
2022-08-05T08:00:05.788Z,2.30
2022-08-05T08:02:15.755Z,2.30
2022-08-05T08:04:34.309Z,2.47
2022-08-05T08:06:39.058Z,2.40
2022-08-05T08:08:40.364Z,2.30
2022-08-05T08:10:41.915Z,2.17
2022-08-05T08:12:50.451Z,2.83
2022-08-05T08:14:51.986Z,2.88
2022-08-05T08:16:53.622Z,2.80
2022-08-05T08:18:55.252Z,2.60
2022-08-05T08:21:02.410Z,2.70
2022-08-05T08:23:05.051Z,2.60
2022-08-05T08:25:16.149Z,2.50
2022-08-05T08:27:19.299Z,3.42
2022-08-05T08:29:45.357Z,2.90
2022-08-05T08:31:42.658Z,2.83
2022-08-05T08:33:44.565Z,2.85
2022-08-05T08:35:52.503Z,2.75
2022-08-05T08:38:05.211Z,3.00
2022-08-05T08:40:07.607Z,3.65
2022-08-05T08:42:27.566Z,3.58
2022-08-05T08:45:16.775Z,2.75
2022-08-05T08:46:54.403Z,3.30
2022-08-05T08:49:08.019Z,2.63
2022-08-05T08:51:30.611Z,3.22
2022-08-05T08:53:44.461Z,2.70
2022-08-05T08:56:04.788Z,2.63
2022-08-05T08:58:07.256Z,3.08
2022-08-05T09:00:10.318Z,2.97
2022-08-05T09:02:19.196Z,2.88
2022-08-05T09:04:21.629Z,3.10
2022-08-05T09:06:31.604Z,2.80
2022-08-05T09:08:33.219Z,2.97
2022-08-05T09:10:34.779Z,2.50
2022-08-05T09:12:37.984Z,2.97
2022-08-05T09:14:57.544Z,2.80
2022-08-05T09:17:01.394Z,2.78
2022-08-05T09:19:06.953Z,3.00
2022-08-05T09:21:11.502Z,2.50
2022-08-05T09:23:22.132Z,3.17
2022-08-05T09:26:03.017Z,2.95
2022-08-05T09:28:05.387Z,3.20
2022-08-05T09:30:08.051Z,2.92
2022-08-05T09:34:54.863Z,2.50
2022-08-05T09:39:18.028Z,3.40
2022-08-05T09:41:23.834Z,3.00
2022-08-05T09:43:26.234Z,2.80
2022-08-05T09:46:06.414Z,2.60
2022-08-05T09:47:56.795Z,2.80
2022-08-05T09:50:02.303Z,2.65
2022-08-05T09:52:16.458Z,2.90
2022-08-05T09:54:29.548Z,3.20
2022-08-05T09:56:33.334Z,2.75
2022-08-05T09:58:34.794Z,2.80
2022-08-05T10:00:36.117Z,2.75
2022-08-05T10:02:40.554Z,2.70
2022-08-05T10:04:44.496Z,2.75
2022-08-05T10:06:59.556Z,3.00
2022-08-05T10:09:25.035Z,2.92
2022-08-05T10:11:35.323Z,2.88
2022-08-05T10:13:45.572Z,2.92
2022-08-05T10:15:49.795Z,2.90
2022-08-05T10:18:03.456Z,2.90
2022-08-05T10:20:09.949Z,2.92
2022-08-05T10:22:15.748Z,2.78
2022-08-05T10:24:32.154Z,2.83
2022-08-05T10:26:34.000Z,2.75
2022-08-05T10:28:36.707Z,2.80
2022-08-05T10:31:20.808Z,2.95
2022-08-05T10:33:01.001Z,2.53
2022-08-05T10:35:04.161Z,2.72
2022-08-05T10:37:05.531Z,2.85
2022-08-05T10:39:15.009Z,2.75
2022-08-05T10:41:45.200Z,2.60
2022-08-05T10:43:57.418Z,2.88
2022-08-05T10:46:06.691Z,2.70
2022-08-05T10:48:57.105Z,3.13
2022-08-05T10:51:01.290Z,3.40
2022-08-05T10:53:04.783Z,3.40
2022-08-05T10:55:07.199Z,3.22
2022-08-05T10:57:14.552Z,2.90
2022-08-05T11:00:02.879Z,3.38
2022-08-05T11:01:55.684Z,3.38
2022-08-05T11:04:01.185Z,3.60
2022-08-05T11:06:16.155Z,2.80
2022-08-05T11:08:33.807Z,3.20
2022-08-05T11:10:50.036Z,3.40
2022-08-05T11:13:01.596Z,3.20
2022-08-05T11:15:20.314Z,3.13
2022-08-05T11:18:07.319Z,3.13
2022-08-05T11:20:10.666Z,2.85
2022-08-05T11:22:33.671Z,3.15
2022-08-05T11:24:34.953Z,3.63
2022-08-05T11:26:40.570Z,3.20
2022-08-05T11:28:46.449Z,3.28
2022-08-05T11:31:01.673Z,3.15
2022-08-05T11:33:26.208Z,3.58
2022-08-05T11:36:07.992Z,3.10
2022-08-05T11:38:28.479Z,3.88
2022-08-05T11:40:50.673Z,2.90
2022-08-05T11:42:52.103Z,3.30
2022-08-05T11:45:00.714Z,3.25
2022-08-05T11:47:14.192Z,3.13
2022-08-05T11:49:19.745Z,3.28
2022-08-05T11:51:44.274Z,3.60
2022-08-05T11:53:43.458Z,3.30
2022-08-05T11:55:56.417Z,3.15
2022-08-05T11:58:09.999Z,3.65
2022-08-05T12:00:27.567Z,3.47
2022-08-05T12:02:33.700Z,3.15
2022-08-05T12:04:59.213Z,3.30
2022-08-05T12:07:01.257Z,2.92
2022-08-05T12:09:04.104Z,3.80
2022-08-05T12:11:07.960Z,2.97
2022-08-05T12:13:15.823Z,3.20
2022-08-05T12:15:37.791Z,3.10
2022-08-05T12:18:10.217Z,3.00
2022-08-05T12:20:17.035Z,2.97
2022-08-05T12:22:27.692Z,3.00
2022-08-05T12:24:30.159Z,2.70
2022-08-05T12:26:32.285Z,3.05
2022-08-05T12:28:35.158Z,3.10
2022-08-05T12:30:38.632Z,3.20
2022-08-05T12:32:51.007Z,3.00
2022-08-05T12:34:52.666Z,3.60
2022-08-05T12:36:54.819Z,2.85
2022-08-05T12:38:57.221Z,3.30
2022-08-05T12:40:59.008Z,3.17
2022-08-05T12:43:00.485Z,3.30
2022-08-05T12:45:09.455Z,3.30
2022-08-05T12:47:12.510Z,3.60
2022-08-05T12:49:15.075Z,3.38
2022-08-05T12:52:09.884Z,3.45
2022-08-05T12:53:42.995Z,3.08
2022-08-05T12:55:49.019Z,3.22
2022-08-05T12:58:39.045Z,3.47
2022-08-05T13:02:00.256Z,3.72
2022-08-05T13:02:43.328Z,3.13
2022-08-05T13:04:54.704Z,3.42
2022-08-05T13:07:00.814Z,3.50
2022-08-05T13:09:08.688Z,3.20
2022-08-05T13:11:17.063Z,3.60
2022-08-05T13:14:05.368Z,3.40
2022-08-05T13:15:50.862Z,3.63
2022-08-05T13:17:55.634Z,3.80
2022-08-05T13:20:00.826Z,3.58
2022-08-05T13:22:02.416Z,3.78
2022-08-05T13:24:05.123Z,3.20
2022-08-05T13:26:06.843Z,3.58
2022-08-05T13:28:10.668Z,3.80
2022-08-05T13:30:36.109Z,3.42
2022-08-05T13:32:39.168Z,3.60
2022-08-05T13:34:43.374Z,3.78
2022-08-05T13:36:44.899Z,3.35
2022-08-05T13:38:46.390Z,3.60
2022-08-05T13:40:53.493Z,3.10
2022-08-05T13:42:55.591Z,3.40
2022-08-05T13:44:57.551Z,3.67
2022-08-05T13:47:02.316Z,3.25
2022-08-05T13:49:12.055Z,3.50
2022-08-05T13:51:14.034Z,3.60
2022-08-05T13:53:15.951Z,3.55
2022-08-05T13:55:40.828Z,3.70
2022-08-05T13:57:50.573Z,3.35
2022-08-05T13:59:57.258Z,3.72
2022-08-05T14:02:01.326Z,3.38
2022-08-05T14:04:21.142Z,3.50
2022-08-05T14:06:26.307Z,3.45
2022-08-05T14:08:32.687Z,3.50
2022-08-05T14:10:35.342Z,3.50
2022-08-05T14:12:38.830Z,3.28
2022-08-05T14:14:40.598Z,3.22
2022-08-05T14:16:43.352Z,3.40
2022-08-05T14:18:51.635Z,3.53
2022-08-05T14:20:55.080Z,3.50
2022-08-05T14:22:57.452Z,3.42
2022-08-05T14:24:59.040Z,3.38
2022-08-05T14:27:16.814Z,3.53
2022-08-05T14:29:19.199Z,3.50
2022-08-05T14:32:02.515Z,3.50
2022-08-05T14:34:00.185Z,3.03
2022-08-05T14:36:02.161Z,3.72
2022-08-05T14:38:03.482Z,3.47
2022-08-05T14:40:06.118Z,2.90
2022-08-05T14:42:21.345Z,3.15
2022-08-05T14:44:23.383Z,3.63
2022-08-05T14:46:27.993Z,3.60
2022-08-05T14:48:32.301Z,3.40
2022-08-05T14:50:39.689Z,3.15
2022-08-05T14:52:52.625Z,3.08
2022-08-05T14:54:54.724Z,3.03
2022-08-05T14:56:56.372Z,3.20
2022-08-05T14:58:57.655Z,3.30
2022-08-05T15:01:00.417Z,3.42
2022-08-05T15:03:03.702Z,3.10
2022-08-05T15:05:13.231Z,3.47
2022-08-05T15:08:08.654Z,3.20
2022-08-05T15:09:52.680Z,2.88
2022-08-05T15:11:57.135Z,3.10
2022-08-05T15:13:59.002Z,2.70
2022-08-05T15:16:00.387Z,2.97
2022-08-05T15:18:03.759Z,2.80
2022-08-05T15:20:13.405Z,2.88
2022-08-05T15:22:19.887Z,2.70
2022-08-05T15:24:22.836Z,2.97
2022-08-05T15:26:31.720Z,3.05
2022-08-05T15:28:33.662Z,3.00
2022-08-05T15:30:36.756Z,2.85
2022-08-05T15:32:38.036Z,3.10
2022-08-05T15:34:41.767Z,2.95
2022-08-05T15:36:43.489Z,2.90
2022-08-05T15:38:45.016Z,2.95
2022-08-05T15:41:20.941Z,2.92
2022-08-05T15:43:19.738Z,3.05
2022-08-05T15:45:38.820Z,3.10
2022-08-05T15:47:41.067Z,2.90
2022-08-05T15:49:56.043Z,2.90
2022-08-05T15:52:12.568Z,2.55
2022-08-05T15:54:15.898Z,3.15
2022-08-05T15:56:17.480Z,2.78
2022-08-05T15:58:19.180Z,2.80
2022-08-05T16:00:26.153Z,2.80
2022-08-05T16:04:46.117Z,2.92
2022-08-05T16:06:47.423Z,2.72
2022-08-05T16:08:51.195Z,3.08
2022-08-05T16:10:55.019Z,2.70
2022-08-05T16:12:56.365Z,2.92
2022-08-05T16:14:57.883Z,2.50
2022-08-05T16:16:59.314Z,3.00
2022-08-05T16:19:00.631Z,2.80
2022-08-05T16:21:04.203Z,2.95
2022-08-05T16:23:08.581Z,3.00
2022-08-05T16:25:10.756Z,3.20
2022-08-05T16:27:15.996Z,3.05
2022-08-05T16:29:18.055Z,2.95
2022-08-05T16:31:22.606Z,2.95
2022-08-05T16:33:26.875Z,3.17
2022-08-05T16:35:33.738Z,3.30
2022-08-05T16:38:02.248Z,2.70
2022-08-05T16:40:13.496Z,2.70
2022-08-05T16:42:28.619Z,2.95
2022-08-05T16:44:30.121Z,3.00
2022-08-05T16:46:31.703Z,3.25
2022-08-05T16:48:35.615Z,3.10
2022-08-05T16:50:37.276Z,3.60
2022-08-05T16:52:38.680Z,2.95
2022-08-05T16:54:47.336Z,3.20
2022-08-05T16:56:52.193Z,3.33
2022-08-05T16:58:53.867Z,3.40
2022-08-05T17:00:55.227Z,3.40
2022-08-05T17:02:56.657Z,3.17
2022-08-05T17:04:57.975Z,3.60
2022-08-05T17:07:03.497Z,2.83
2022-08-05T17:09:12.688Z,3.13
2022-08-05T17:11:16.991Z,3.40
2022-08-05T17:13:36.997Z,3.38
2022-08-05T17:15:49.003Z,3.17
2022-08-05T17:17:55.369Z,3.20
2022-08-05T17:19:57.002Z,3.35
2022-08-05T17:21:58.487Z,3.10
2022-08-05T17:24:04.997Z,3.50
2022-08-05T17:26:09.567Z,2.83
2022-08-05T17:28:15.489Z,3.15
2022-08-05T17:30:19.154Z,3.10
2022-08-05T17:32:29.874Z,3.00
2022-08-05T17:34:32.264Z,3.33
2022-08-05T17:36:40.136Z,3.30
2022-08-05T17:38:42.228Z,3.00
2022-08-05T17:40:44.070Z,3.20
2022-08-05T17:42:51.048Z,3.17
2022-08-05T17:44:53.420Z,3.10
2022-08-05T17:46:54.800Z,2.65
2022-08-05T17:48:56.152Z,3.08
2022-08-05T17:50:59.387Z,3.00
2022-08-05T17:53:04.724Z,3.30
2022-08-05T17:55:07.871Z,3.50
2022-08-05T17:57:12.325Z,2.90
2022-08-05T17:59:13.780Z,3.35
2022-08-05T18:01:22.190Z,3.08
2022-08-05T18:03:59.449Z,3.53
2022-08-05T18:05:52.989Z,3.10
2022-08-05T18:07:56.853Z,3.03
2022-08-05T18:10:00.465Z,3.00
2022-08-05T18:12:03.407Z,3.30
2022-08-05T18:14:13.376Z,3.10
2022-08-05T18:16:15.170Z,2.95
2022-08-05T18:18:21.922Z,3.20
2022-08-05T18:20:29.495Z,3.08
2022-08-05T18:22:36.321Z,2.80
2022-08-05T18:24:54.906Z,2.92
2022-08-05T18:26:56.237Z,3.03
2022-08-05T18:28:59.622Z,2.90
2022-08-05T18:31:00.901Z,2.80
2022-08-05T18:33:02.506Z,2.80
2022-08-05T18:35:05.199Z,3.15
2022-08-05T18:37:12.105Z,2.92
2022-08-05T18:39:41.973Z,3.20
2022-08-05T18:41:59.594Z,2.90
2022-08-05T18:43:57.242Z,2.90
2022-08-05T18:46:07.407Z,2.90
2022-08-05T18:48:17.508Z,3.60
2022-08-05T18:50:51.012Z,2.80
2022-08-05T18:52:54.211Z,2.70
2022-08-05T18:54:55.942Z,2.70
2022-08-05T18:56:57.293Z,2.80
2022-08-05T18:59:00.769Z,2.42
2022-08-05T19:01:02.612Z,2.70
2022-08-05T19:03:06.725Z,2.53
2022-08-05T19:06:05.722Z,2.60
2022-08-05T19:07:29.916Z,2.60
2022-08-05T19:09:47.184Z,2.72
2022-08-05T19:11:59.371Z,2.50
2022-08-05T19:14:15.249Z,2.75
2022-08-05T19:16:28.421Z,2.33
2022-08-05T19:18:31.823Z,2.70
2022-08-05T19:20:33.187Z,2.78
2022-08-05T19:22:34.489Z,2.28
2022-08-05T19:24:41.265Z,2.78
2022-08-05T19:26:57.526Z,2.20
2022-08-05T19:28:58.877Z,2.40
2022-08-05T19:31:00.990Z,2.13
2022-08-05T19:33:05.188Z,2.00
2022-08-05T19:35:10.224Z,2.50
2022-08-05T19:37:11.518Z,2.50
2022-08-05T19:39:13.135Z,2.60
2022-08-05T19:41:22.183Z,2.65
2022-08-05T19:44:05.699Z,2.50
2022-08-05T19:46:01.154Z,2.50
2022-08-05T19:48:02.876Z,2.22
2022-08-05T19:50:07.929Z,2.22
2022-08-05T19:52:31.078Z,2.25
2022-08-05T19:54:34.714Z,2.40
2022-08-05T19:56:36.833Z,2.28
2022-08-05T19:58:53.386Z,1.92
2022-08-05T20:00:55.588Z,2.28
2022-08-05T20:02:58.606Z,2.20
2022-08-05T20:05:00.138Z,2.50
2022-08-05T20:07:01.984Z,2.40
2022-08-05T20:09:13.764Z,2.05
2022-08-05T20:11:17.900Z,2.47
2022-08-05T20:13:30.298Z,2.17
2022-08-05T20:15:51.745Z,2.25
2022-08-05T20:17:54.348Z,2.35
2022-08-05T20:19:57.652Z,2.33
2022-08-05T20:21:59.027Z,2.40
2022-08-05T20:24:00.453Z,2.28
2022-08-05T20:26:02.227Z,2.20
2022-08-05T20:28:04.185Z,1.92
2022-08-05T20:30:06.215Z,2.00
2022-08-05T20:32:07.637Z,1.85
2022-08-05T20:34:11.626Z,1.90
2022-08-05T20:36:16.193Z,1.80
2022-08-05T20:38:22.775Z,2.08
2022-08-05T20:40:29.032Z,2.20
2022-08-05T20:42:34.053Z,1.92
2022-08-05T20:44:37.966Z,1.98
2022-08-05T20:46:39.459Z,2.08
2022-08-05T20:48:40.816Z,1.75
2022-08-05T20:50:45.549Z,2.13
2022-08-05T20:52:48.751Z,1.80
2022-08-05T20:54:59.925Z,2.63
2022-08-05T20:57:41.803Z,2.97
2022-08-05T20:59:46.315Z,2.40
2022-08-05T21:01:58.316Z,2.10
2022-08-05T21:03:59.690Z,2.10
2022-08-05T21:06:01.532Z,1.85
2022-08-05T21:08:03.211Z,2.10
2022-08-05T21:10:09.138Z,2.40
2022-08-05T21:12:19.185Z,2.30
2022-08-05T21:14:20.573Z,2.30
2022-08-05T21:16:30.219Z,2.45
2022-08-05T21:18:32.019Z,2.67
2022-08-05T21:20:34.348Z,2.70
2022-08-05T21:22:35.675Z,2.40
2022-08-05T21:24:36.969Z,2.72
2022-08-05T21:26:38.264Z,2.63
2022-08-05T21:28:47.720Z,2.72
2022-08-05T21:30:52.047Z,2.97
2022-08-05T21:32:53.326Z,2.65
2022-08-05T21:35:16.792Z,3.03
2022-08-05T21:37:17.106Z,2.83
2022-08-05T21:39:26.620Z,3.13
2022-08-05T21:41:33.960Z,2.72
2022-08-05T21:43:41.545Z,3.15
2022-08-05T21:45:51.830Z,3.60
2022-08-05T21:47:58.964Z,3.17
2022-08-05T21:50:02.315Z,3.25
2022-08-05T21:52:16.163Z,3.30
2022-08-05T21:54:30.676Z,3.00
2022-08-05T21:56:32.434Z,3.58
2022-08-05T21:58:34.635Z,2.72
2022-08-05T22:00:38.134Z,3.30
2022-08-05T22:02:42.657Z,2.95
2022-08-05T22:04:44.587Z,3.88
2022-08-05T22:06:50.415Z,3.03
2022-08-05T22:08:52.512Z,2.97
2022-08-05T22:10:53.933Z,3.55
2022-08-05T22:12:57.300Z,3.97
2022-08-05T22:14:59.035Z,3.40
2022-08-05T22:17:03.954Z,3.70
2022-08-05T22:19:15.162Z,3.65
2022-08-05T22:21:28.036Z,3.45
2022-08-05T22:24:01.835Z,3.38
2022-08-05T22:26:43.268Z,3.90
2022-08-05T22:28:51.334Z,4.00
2022-08-05T22:30:56.873Z,4.03
2022-08-05T22:32:59.358Z,4.00
2022-08-05T22:35:00.637Z,4.13
2022-08-05T22:37:03.847Z,4.20
2022-08-05T22:39:09.481Z,4.10
2022-08-05T22:41:11.924Z,3.75
2022-08-05T22:43:16.360Z,3.97
2022-08-05T22:45:37.675Z,4.88
2022-08-05T22:47:40.062Z,4.47
2022-08-05T22:50:19.595Z,4.05
2022-08-05T22:52:22.780Z,3.53
2022-08-05T22:54:34.037Z,3.55
2022-08-05T22:56:35.361Z,3.72
2022-08-05T22:58:43.838Z,4.47
2022-08-05T23:00:45.303Z,3.70
2022-08-05T23:02:47.960Z,4.10
2022-08-05T23:04:52.125Z,4.15
2022-08-05T23:06:53.952Z,4.35
2022-08-05T23:08:55.313Z,4.65
2022-08-05T23:10:56.635Z,4.45
2022-08-05T23:12:59.485Z,4.07
2022-08-05T23:15:03.157Z,4.07
2022-08-05T23:17:24.215Z,4.07
2022-08-05T23:19:38.539Z,4.10
2022-08-05T23:21:48.429Z,4.03
2022-08-05T23:23:50.006Z,3.35
2022-08-05T23:25:55.540Z,3.80
2022-08-05T23:28:00.533Z,3.85
2022-08-05T23:30:02.350Z,4.20
2022-08-05T23:32:09.612Z,3.47
2022-08-05T23:34:12.006Z,3.53
2022-08-05T23:36:13.490Z,3.28
2022-08-05T23:38:15.246Z,3.17
2022-08-05T23:40:18.387Z,3.15
2022-08-05T23:42:29.616Z,3.85
2022-08-05T23:44:32.322Z,3.55
2022-08-05T23:46:34.069Z,3.58
2022-08-05T23:48:38.855Z,3.50
2022-08-05T23:50:43.840Z,3.55
2022-08-05T23:52:50.076Z,3.50
2022-08-05T23:54:52.581Z,3.70
2022-08-05T23:57:03.494Z,3.60
2022-08-05T23:59:05.568Z,3.80
